Cusick, Washington
Current Conditions -  °F | °C
As of 12:53 PM on Saturday 25 Oct 2014 (Local Time) from KDEW Reporting Station
Overcast Overcast  
Wind Chill: 13°   Ceiling: 12000
Heat Index: 13°   Visibility: 10mi
Dew Point:   Wind: 8mph
Humidity: 62%   Direction: 30°NNE
Pressure: 29.59"   Gusts: NA
Location:  48.34°N, 117.3°W
Report Text: KDEW 251953Z AUTO 03007KT 10SM OVC120 13/06 A2959 RMK AO2 SLP020 T01280056
Loading
Personal Weather Stations






























Interactive Weather Map
Tropical Storm Tracking
New forecast layout! Learn more

10-Day Weather Forecast

Advertisements
Track Severe Weather on mobile